Time,TemperatureF,DewpointF,PressureIn,WindDirection,WindDirectionDegrees,WindSpeedMPH,WindSpeedGustMPH,Humidity,HourlyPrecipIn,Conditions,Clouds,dailyrainin,SoftwareType,DateUTC
2013-02-19 18:49:00,-999.0,-99.9,-100.00,North,-999,-999.0,-999.0,-999,-99.99,,,-99.99,Acu-Link.com,2013-02-19 23:49:00,
2013-02-19 19:04:00,37.8,37.3,29.96,West,270,6.3,-999.0,98,-99.99,,,0.05,Acu-Link.com,2013-02-20 00:04:00,
2013-02-19 19:20:00,37.6,37.1,29.96,West,270,6.3,-999.0,98,-99.99,,,0.05,Acu-Link.com,2013-02-20 00:20:00,
2013-02-19 19:35:00,37.6,36.3,29.96,WNW,292,9.4,-999.0,95,-99.99,,,0.05,Acu-Link.com,2013-02-20 00:35:00,
2013-02-19 19:50:00,38.1,33.1,29.96,WNW,292,15.0,-999.0,82,-99.99,,,0.05,Acu-Link.com,2013-02-20 00:50:00,
2013-02-19 20:05:00,37.4,30.2,29.97,WNW,292,9.9,-999.0,75,-99.99,,,0.05,Acu-Link.com,2013-02-20 01:05:00,
2013-02-19 20:21:00,36.1,29.9,29.97,WNW,292,6.8,-999.0,78,-99.99,,,0.05,Acu-Link.com,2013-02-20 01:21:00,
2013-02-19 20:36:00,36.3,29.8,29.97,WNW,292,9.9,-999.0,77,-99.99,,,0.05,Acu-Link.com,2013-02-20 01:36:00,
2013-02-19 20:51:00,36.1,29.9,29.97,NW,315,9.9,-999.0,78,-99.99,,,0.05,Acu-Link.com,2013-02-20 01:51:00,
2013-02-19 21:07:00,36.7,28.9,29.96,NW,315,10.4,-999.0,73,-99.99,,,0.05,Acu-Link.com,2013-02-20 02:07:00,
2013-02-19 21:22:00,36.3,28.5,29.97,WNW,292,13.5,-999.0,73,-99.99,,,0.05,Acu-Link.com,2013-02-20 02:22:00,
2013-02-19 21:37:00,37.0,26.3,29.97,West,270,26.9,-999.0,65,-99.99,,,0.05,Acu-Link.com,2013-02-20 02:37:00,
2013-02-19 21:52:00,36.5,25.5,29.97,West,270,18.1,-999.0,64,-99.99,,,0.05,Acu-Link.com,2013-02-20 02:52:00,
2013-02-19 22:07:00,36.3,24.9,29.98,West,270,14.0,-999.0,63,-99.99,,,0.05,Acu-Link.com,2013-02-20 03:07:00,
2013-02-19 22:22:00,35.8,24.8,29.98,West,270,14.0,-999.0,64,-99.99,,,0.05,Acu-Link.com,2013-02-20 03:22:00,
2013-02-19 22:37:00,35.2,25.0,29.97,West,270,9.9,-999.0,66,-99.99,,,0.05,Acu-Link.com,2013-02-20 03:37:00,
2013-02-19 22:53:00,34.3,25.2,29.97,West,270,10.4,-999.0,69,-99.99,,,0.05,Acu-Link.com,2013-02-20 03:53:00,
2013-02-19 23:08:00,35.1,24.9,29.97,WNW,292,11.9,-999.0,66,-99.99,,,0.05,Acu-Link.com,2013-02-20 04:08:00,
2013-02-19 23:23:00,35.1,23.4,29.97,WNW,292,15.0,-999.0,62,-99.99,,,0.05,Acu-Link.com,2013-02-20 04:23:00,
2013-02-19 23:38:00,34.7,22.3,29.97,WNW,292,20.2,-999.0,60,-99.99,,,0.05,Acu-Link.com,2013-02-20 04:38:00,
2013-02-19 23:54:00,34.3,22.3,29.98,NW,315,13.0,-999.0,61,-99.99,,,0.05,Acu-Link.com,2013-02-20 04:54:00,